Impacts TAF Board INFO
FOR SITUATIONAL AWARENESS. NOT TO BE USED FOR FLIGHT PLANNING PURPOSES.
IDs:

KPHX - Phoenix/Sky Harbor, AZ, US

Issued at 0520 UTC 18 Jan 2018
Updated at 0524 UTC 18 Jan 2018
Potential Impact None Slight Moderate High
Time0451Z 18/06Z 18/07Z 18/08Z 18/09Z 18/10Z 18/11Z 18/12Z 18/13Z 18/14Z 18/15Z 18/16Z 18/17Z 18/18Z>>
Type OBS PRVL PRVL PRVL PRVL PRVL PRVL PRVL PRVL PRVL PRVL PRVL PRVL PRVL
VIS 10 >6 >6 >6 >6 >6 >6 >6 >6 >6 >6 >6 >6 >6
CIG -- -- -- -- -- -- -- -- -- -- -- -- -- --
Cover SCT FEW FEW FEW FEW FEW FEW FEW FEW FEW FEW FEW FEW FEW
FltCat VFR VFR VFR VFR VFR VFR VFR VFR VFR VFR VFR VFR VFR VFR
WX -- -- -- -- -- -- -- -- -- -- -- -- -- --
WDir 90 80 80 80 80 80 80 80 80 80 80 100 100 100
WSpd 4 5 5 5 5 5 5 5 5 5 5 9 9 9
WGst -- -- -- -- -- -- -- -- -- -- -- -- -- --

Raw TAF
KPHX 180520Z 1806/1912 08005KT P6SM FEW250
  FM181600 10009KT P6SM FEW250
  FM182200 VRB04KT P6SM SKC


Raw METAR
KPHX 180451Z 09004KT 10SM FEW130 SCT240 14/00 A3018 RMK AO2 SLP211 T01440000
KPHX 180351Z 00000KT 10SM FEW130 SCT240 17/M02 A3016 RMK AO2 SLP204 T01671022
KPHX 180251Z 30004KT 10SM FEW240 18/M03 A3015 RMK AO2 SLP203 T01831028 53014

METAR Board
Radar Display
Forecast Discussion

FOR SITUATIONAL AWARENESS. NOT TO BE USED FOR FLIGHT PLANNING PURPOSES.